Time;durP1;ratioP1;P1;durP2;ratioP2;P2;SDS_P1;SDS_P2;PMS_P1;PMS_P2;Temp;Humidity;BMP_temperature;BMP_pressure;BME280_temperature;BME280_humidity;BME280_pressure;Samples;Min_cycle;Max_cycle;Signal;HPM_P1;HPM_P2
2021/08/10 00:01:07;;;;;;;8.82;4.13;;;12.90;99.90;;;11.65;100.00;102899.38;5028718;28;20033;-73
2021/08/10 00:03:33;;;;;;;10.65;4.30;;;13.00;99.90;;;11.67;100.00;102929.28;5031804;28;20040;-73
2021/08/10 00:05:59;;;;;;;5.93;3.30;;;12.90;99.90;;;11.68;100.00;102965.31;5030519;28;20568;-72
2021/08/10 00:08:25;;;;;;;6.00;3.35;;;12.90;99.90;;;11.59;100.00;102947.84;5047093;28;20067;-73
2021/08/10 00:10:52;;;;;;;9.43;4.22;;;12.80;99.90;;;11.57;100.00;102959.31;5015173;28;22301;-72
2021/08/10 00:13:21;;;;;;;10.10;3.63;;;12.80;99.90;;;11.54;100.00;102951.47;5013852;28;20504;-73
2021/08/10 00:15:48;;;;;;;10.55;3.78;;;12.80;99.90;;;11.50;100.00;103009.53;5023528;28;20055;-72
2021/08/10 00:18:15;;;;;;;9.80;3.53;;;12.70;99.90;;;11.48;100.00;103045.63;5030561;28;20029;-73
2021/08/10 00:20:41;;;;;;;10.32;4.20;;;12.70;99.90;;;11.44;100.00;103011.41;5031943;28;20082;-73
2021/08/10 00:23:07;;;;;;;20.48;4.03;;;12.70;99.90;;;11.45;100.00;103055.38;5043160;28;20040;-72
2021/08/10 00:25:33;;;;;;;10.35;3.55;;;12.70;99.90;;;11.43;100.00;103050.09;5035038;28;20033;-72
2021/08/10 00:28:00;;;;;;;9.25;3.90;;;12.70;99.90;;;11.45;100.00;103071.19;5013731;28;20045;-73
2021/08/10 00:30:28;;;;;;;10.23;3.60;;;12.70;99.90;;;11.44;100.00;103048.31;5034032;28;20047;-73
2021/08/10 00:32:54;;;;;;;7.45;3.50;;;12.70;99.90;;;11.39;100.00;103023.78;5021488;28;20152;-73
2021/08/10 00:35:21;;;;;;;7.72;3.58;;;12.70;99.90;;;11.40;100.00;103065.97;5029611;28;20017;-72
2021/08/10 00:37:48;;;;;;;8.63;3.75;;;12.60;99.90;;;11.37;100.00;103015.88;5020461;28;20067;-73
2021/08/10 00:40:15;;;;;;;12.85;3.60;;;12.60;99.90;;;11.36;100.00;102979.88;5031589;28;20513;-73
2021/08/10 00:42:42;;;;;;;10.32;3.72;;;12.60;99.90;;;11.35;100.00;103032.63;5029383;28;20029;-72
2021/08/10 00:45:09;;;;;;;13.25;3.97;;;12.60;99.90;;;11.34;100.00;103030.88;5030883;28;20147;-73
2021/08/10 00:47:35;;;;;;;8.57;3.75;;;12.60;99.90;;;11.29;100.00;103034.47;5028885;28;20040;-72
2021/08/10 00:50:01;;;;;;;11.20;3.60;;;12.60;99.90;;;11.32;100.00;103022.09;5031198;28;20036;-72
2021/08/10 00:52:28;;;;;;;6.28;3.90;;;12.60;99.90;;;11.29;100.00;103018.63;5028948;28;20065;-73
2021/08/10 00:54:54;;;;;;;12.60;3.70;;;12.60;99.90;;;11.32;100.00;103045.84;5014657;28;20046;-71
2021/08/10 00:57:20;;;;;;;7.00;3.25;;;12.60;99.90;;;11.40;100.00;103051.91;5030140;28;20169;-72
2021/08/10 00:59:46;;;;;;;9.05;3.47;;;12.60;99.90;;;11.38;100.00;103040.50;5045821;28;20462;-72
2021/08/10 01:02:12;;;;;;;9.02;3.80;;;12.60;99.90;;;11.32;100.00;102979.91;5013113;28;20147;-73
2021/08/10 01:04:39;;;;;;;6.82;3.30;;;12.60;99.90;;;11.32;100.00;102985.16;5019241;28;20071;-73
2021/08/10 01:07:31;;;;;;;8.10;3.53;;;12.50;99.90;;;11.25;100.00;102919.34;5018220;28;20044;-73
2021/08/10 01:10:23;;;;;;;5.35;2.95;;;12.50;99.90;;;11.23;100.00;102934.31;5043097;28;20055;-73
2021/08/10 01:13:31;;;;;;;8.32;3.33;;;12.50;99.90;;;11.21;100.00;102966.84;5024223;28;20082;-73
2021/08/10 01:16:34;;;;;;;7.97;3.35;;;12.40;99.90;;;11.19;100.00;102990.63;5025745;28;20033;-73
2021/08/10 01:19:32;;;;;;;7.25;3.22;;;12.50;99.90;;;11.17;100.00;102987.16;5043615;28;20040;-73
2021/08/10 01:22:00;;;;;;;8.60;3.50;;;12.40;99.90;;;11.12;100.00;102994.22;5006782;28;20129;-72
2021/08/10 01:24:52;;;;;;;9.65;3.58;;;12.40;99.90;;;11.12;100.00;102985.44;5029605;28;20146;-72
2021/08/10 01:27:54;;;;;;;10.32;3.50;;;12.40;99.90;;;11.18;100.00;102994.16;5029826;28;20522;-73
2021/08/10 01:30:38;;;;;;;10.30;3.67;;;12.50;99.90;;;11.25;100.00;103043.31;5048831;28;20059;-72
2021/08/10 01:33:06;;;;;;;9.50;3.83;;;12.50;99.90;;;11.24;100.00;103070.56;5041445;28;20042;-72
2021/08/10 01:35:33;;;;;;;8.00;3.97;;;12.40;99.90;;;11.11;100.00;103029.41;5029368;28;20060;-72
2021/08/10 01:38:01;;;;;;;8.52;3.83;;;12.30;99.90;;;11.04;100.00;103044.44;5028580;28;20476;-72
2021/08/10 01:40:30;;;;;;;11.32;3.88;;;12.30;99.90;;;11.00;100.00;103055.91;5029920;28;20067;-72
2021/08/10 01:43:00;;;;;;;14.25;4.00;;;12.20;99.90;;;10.98;100.00;103046.25;5029407;28;20519;-73
2021/08/10 01:45:26;;;;;;;6.38;3.75;;;12.20;99.90;;;10.97;100.00;103084.94;5029926;28;20033;-73
2021/08/10 01:47:54;;;;;;;7.90;3.78;;;12.20;99.90;;;11.02;100.00;103219.34;5061066;28;20120;-72
2021/08/10 01:50:22;;;;;;;9.18;3.88;;;12.30;99.90;;;11.08;100.00;103098.00;5029801;28;20063;-72
2021/08/10 01:52:49;;;;;;;6.22;3.80;;;12.40;99.90;;;11.10;100.00;103112.06;5013708;28;20033;-72
2021/08/10 01:55:19;;;;;;;10.65;3.95;;;12.40;99.90;;;11.10;100.00;103162.16;5045187;28;20033;-72
2021/08/10 01:57:48;;;;;;;11.30;3.70;;;12.40;99.90;;;11.12;100.00;103184.06;5020276;28;20029;-72
2021/08/10 02:00:15;;;;;;;11.52;4.40;;;12.30;99.90;;;11.10;100.00;103206.97;5045551;28;20049;-72
2021/08/10 02:02:46;;;;;;;9.35;3.95;;;12.30;99.90;;;11.02;100.00;103178.03;5013579;28;20451;-71
2021/08/10 02:05:13;;;;;;;6.60;3.58;;;12.30;99.90;;;10.97;100.00;103150.84;5028452;28;20047;-71
2021/08/10 02:07:40;;;;;;;7.53;4.05;;;12.10;99.90;;;10.87;100.00;103189.56;5032056;28;20452;-72
2021/08/10 02:10:06;;;;;;;11.60;3.90;;;12.10;99.90;;;10.78;100.00;103217.78;5032221;28;20025;-72
2021/08/10 02:12:37;;;;;;;6.93;4.07;;;12.00;99.90;;;10.79;100.00;103223.03;5034469;28;20037;-73
2021/08/10 02:15:04;;;;;;;7.40;3.55;;;12.00;99.90;;;10.72;100.00;103250.31;5032675;28;20090;-73
2021/08/10 02:17:30;;;;;;;9.20;3.85;;;12.00;99.90;;;10.74;100.00;103097.47;5032504;28;20040;-72
2021/08/10 02:19:56;;;;;;;8.18;3.85;;;12.00;99.90;;;10.71;100.00;103195.84;5032469;28;20075;-73
2021/08/10 02:22:23;;;;;;;12.13;4.47;;;12.00;99.90;;;10.82;100.00;103141.31;5034490;28;20029;-72
2021/08/10 02:24:59;;;;;;;7.78;4.15;;;12.10;99.90;;;10.88;100.00;103265.16;5031310;28;20055;-72
2021/08/10 02:27:56;;;;;;;12.25;4.35;;;12.20;99.90;;;10.89;100.00;103213.28;5034865;28;20066;-73
2021/08/10 02:30:28;;;;;;;8.63;4.07;;;12.10;99.90;;;10.91;100.00;103247.53;5049721;28;20067;-73
2021/08/10 02:32:55;;;;;;;14.18;4.65;;;12.20;99.90;;;10.91;100.00;103311.69;5031300;28;20048;-73
2021/08/10 02:35:26;;;;;;;8.80;4.63;;;12.20;99.90;;;10.96;100.00;103351.19;5016643;28;20108;-72
2021/08/10 02:37:56;;;;;;;46.13;20.33;;;12.20;99.90;;;11.00;100.00;103368.75;5031454;28;20527;-73
2021/08/10 02:40:28;;;;;;;15.85;5.38;;;12.30;99.90;;;10.98;100.00;103413.56;5033348;28;20082;-73
2021/08/10 02:42:58;;;;;;;9.30;4.38;;;12.30;99.90;;;11.06;100.00;103453.97;5032518;28;20515;-73
2021/08/10 02:45:25;;;;;;;11.68;4.38;;;12.20;99.90;;;10.99;100.00;103488.25;5050230;28;20040;-73
2021/08/10 02:47:54;;;;;;;10.18;5.35;;;12.30;99.90;;;11.01;100.00;103471.53;5015367;28;20055;-72
2021/08/10 02:50:24;;;;;;;9.30;4.90;;;12.20;99.90;;;10.92;100.00;103447.00;5031834;28;20066;-73
2021/08/10 02:52:51;;;;;;;10.45;4.60;;;12.10;99.90;;;10.85;100.00;103491.84;5032855;28;20056;-72
2021/08/10 02:55:21;;;;;;;12.30;4.47;;;12.10;99.90;;;10.87;100.00;103579.69;5032765;28;20557;-72
2021/08/10 02:58:21;;;;;;;8.23;4.25;;;12.10;99.90;;;10.88;100.00;103555.09;5031361;28;20032;-72
2021/08/10 03:01:09;;;;;;;11.68;4.80;;;12.10;99.90;;;10.83;100.00;103505.91;5031471;28;20424;-72
2021/08/10 03:03:37;;;;;;;7.57;4.53;;;12.10;99.90;;;10.81;100.00;103553.34;5047446;28;20514;-72
2021/08/10 03:06:07;;;;;;;12.13;4.22;;;12.10;99.90;;;10.83;100.00;103546.31;5032462;28;20324;-73
2021/08/10 03:08:38;;;;;;;12.48;4.65;;;12.10;99.90;;;10.87;100.00;103650.00;5030284;28;20069;-72
2021/08/10 03:11:06;;;;;;;10.38;5.00;;;12.10;99.90;;;10.88;100.00;103797.63;5032959;28;21326;-72
2021/08/10 03:13:39;;;;;;;12.25;4.43;;;12.10;99.90;;;10.85;100.00;103673.72;5032231;28;20233;-72
2021/08/10 03:16:08;;;;;;;10.55;4.15;;;12.10;99.90;;;10.82;100.00;103689.53;5033000;28;20561;-73
2021/08/10 03:18:37;;;;;;;14.55;5.05;;;12.10;99.90;;;10.84;100.00;103689.53;5031005;28;20112;-71
2021/08/10 03:21:05;;;;;;;12.68;5.32;;;12.10;99.90;;;10.81;100.00;103737.84;5032562;28;20075;-72
2021/08/10 03:23:36;;;;;;;12.48;4.57;;;12.10;99.90;;;10.88;100.00;103858.25;5031948;28;20428;-72
2021/08/10 03:26:04;;;;;;;6.93;4.25;;;12.20;99.90;;;10.90;100.00;103834.53;5047687;28;20425;-72
2021/08/10 03:28:33;;;;;;;9.88;4.63;;;12.20;99.90;;;10.91;100.00;103832.75;5029171;28;20045;-72
2021/08/10 03:31:00;;;;;;;13.73;5.20;;;12.20;99.90;;;10.90;100.00;103865.28;5029881;28;20481;-72
2021/08/10 03:33:31;;;;;;;14.70;5.70;;;12.20;99.90;;;10.93;100.00;103812.53;5030904;28;20405;-73
2021/08/10 03:35:59;;;;;;;13.70;5.03;;;12.20;99.90;;;10.94;100.00;103853.88;5031746;28;20431;-73
2021/08/10 03:38:26;;;;;;;11.40;5.47;;;12.20;99.90;;;10.96;100.00;103868.81;5023253;28;20074;-73
2021/08/10 03:40:53;;;;;;;21.55;5.07;;;12.20;99.90;;;11.01;100.00;104129.88;5023476;28;20347;-73
2021/08/10 03:43:20;;;;;;;9.00;4.47;;;12.30;99.90;;;11.00;100.00;104044.59;5030800;28;20102;-72
2021/08/10 03:45:50;;;;;;;10.40;4.43;;;12.30;99.90;;;11.00;100.00;103973.41;5033880;28;20083;-73
2021/08/10 03:48:16;;;;;;;10.32;5.15;;;12.20;99.90;;;11.07;100.00;104027.94;5012992;28;20063;-73
2021/08/10 03:50:44;;;;;;;12.50;5.13;;;12.30;99.90;;;11.02;100.00;103920.69;5031423;28;20047;-73
2021/08/10 03:53:10;;;;;;;9.63;5.10;;;12.30;99.90;;;11.11;100.00;103925.09;5034922;28;20098;-73
2021/08/10 03:55:37;;;;;;;14.68;4.72;;;12.30;99.90;;;11.05;100.00;103889.91;5030079;28;20059;-72
2021/08/10 03:58:07;;;;;;;7.97;4.65;;;12.30;99.90;;;10.97;100.00;103906.59;5024576;28;20028;-72
2021/08/10 04:00:41;;;;;;;11.77;4.60;;;12.20;99.90;;;10.98;100.00;103847.72;5028415;28;20165;-73
2021/08/10 04:03:09;;;;;;;12.27;4.50;;;12.20;99.90;;;10.94;100.00;103849.47;5048419;28;20108;-72
2021/08/10 04:05:43;;;;;;;10.38;4.88;;;12.20;99.90;;;11.01;100.00;103861.78;5030066;28;20049;-73
2021/08/10 04:08:15;;;;;;;11.82;4.75;;;12.30;99.90;;;11.03;100.00;103835.41;5031359;28;20071;-72
2021/08/10 04:10:46;;;;;;;17.15;4.85;;;12.30;99.90;;;11.05;100.00;103911.00;5013846;28;20037;-73
2021/08/10 04:13:13;;;;;;;6.85;4.43;;;12.30;99.90;;;11.08;100.00;103924.22;5030901;28;20093;-72
2021/08/10 04:15:49;;;;;;;13.68;4.93;;;12.30;99.90;;;11.07;100.00;103998.91;5030139;28;20466;-73
2021/08/10 04:18:22;;;;;;;10.38;4.50;;;12.30;99.90;;;11.06;100.00;103872.34;5031442;28;20091;-73
2021/08/10 04:20:51;;;;;;;9.90;4.78;;;12.30;99.90;;;11.17;100.00;103919.84;5011816;28;20123;-72
2021/08/10 04:23:19;;;;;;;9.95;6.50;;;12.40;99.90;;;11.23;100.00;103983.13;5030251;28;20084;-73
2021/08/10 04:25:45;;;;;;;24.13;13.15;;;12.40;99.90;;;11.25;100.00;103958.56;5029510;28;20428;-72
2021/08/10 04:28:12;;;;;;;37.33;15.77;;;12.60;99.90;;;11.49;100.00;103985.84;5033212;28;20436;-73
2021/08/10 04:30:41;;;;;;;15.85;8.43;;;12.90;99.90;;;11.80;100.00;104007.00;5028882;28;20526;-72
2021/08/10 04:33:08;;;;;;;12.70;5.97;;;13.00;99.90;;;11.79;100.00;104031.63;5031556;28;20439;-72
2021/08/10 04:35:35;;;;;;;12.43;5.70;;;13.00;99.90;;;11.73;100.00;104015.78;5028006;28;20446;-72
2021/08/10 04:38:03;;;;;;;10.95;5.25;;;13.00;99.90;;;11.76;100.00;104014.03;5031151;28;20025;-73
2021/08/10 04:40:30;;;;;;;13.30;4.40;;;13.10;99.90;;;11.93;100.00;104050.16;5029317;28;20485;-73
2021/08/10 04:42:57;;;;;;;9.00;3.80;;;13.10;99.90;;;11.94;100.00;104102.97;5030994;28;20040;-73
2021/08/10 04:45:24;;;;;;;8.73;3.80;;;13.20;99.90;;;12.03;100.00;104097.72;5029889;28;20041;-72
2021/08/10 04:47:52;;;;;;;10.23;3.97;;;13.30;99.90;;;12.16;100.00;104051.06;5014116;28;20028;-72
2021/08/10 04:50:19;;;;;;;9.77;3.67;;;13.40;99.90;;;12.29;100.00;104063.38;5029272;28;20483;-72
2021/08/10 04:52:45;;;;;;;17.20;3.70;;;13.50;99.90;;;12.33;100.00;103987.59;5030755;28;20041;-73
2021/08/10 04:55:11;;;;;;;9.35;3.20;;;13.60;99.90;;;12.33;100.00;103868.69;5029964;28;20533;-73
2021/08/10 04:57:37;;;;;;;15.27;4.28;;;13.60;99.90;;;12.41;100.00;103842.25;5030854;28;20098;-73
2021/08/10 05:00:08;;;;;;;9.75;3.55;;;13.80;99.90;;;12.60;100.00;103864.19;5045675;28;20439;-72
2021/08/10 05:02:37;;;;;;;8.68;3.60;;;14.00;99.90;;;12.80;100.00;103878.16;5030447;28;20063;-73
2021/08/10 05:05:05;;;;;;;11.75;3.60;;;14.20;99.90;;;12.93;100.00;103882.50;5031980;28;20028;-73
2021/08/10 05:07:31;;;;;;;12.93;3.10;;;14.20;99.90;;;12.92;100.00;103848.13;5029425;28;20033;-73
2021/08/10 05:09:57;;;;;;;15.38;3.55;;;14.10;99.90;;;12.89;100.00;103840.22;5009997;28;20048;-73
2021/08/10 05:12:23;;;;;;;7.60;3.22;;;14.10;99.90;;;12.84;100.00;103816.44;5027109;28;20389;-72
2021/08/10 05:14:49;;;;;;;8.18;3.47;;;14.10;99.90;;;12.87;100.00;103819.09;5029707;28;20032;-72
2021/08/10 05:17:16;;;;;;;16.48;3.28;;;14.10;99.90;;;12.89;100.00;103816.41;5029146;28;20033;-73
2021/08/10 05:19:42;;;;;;;8.20;3.35;;;14.10;99.90;;;12.92;100.00;103811.97;5030235;28;20562;-72
2021/08/10 05:22:08;;;;;;;5.78;3.40;;;14.10;99.90;;;12.91;100.00;103799.66;5046702;28;20049;-72
2021/08/10 05:24:34;;;;;;;8.80;3.30;;;14.10;99.90;;;12.95;100.00;103787.28;5029706;28;20021;-73
2021/08/10 05:27:01;;;;;;;12.07;3.47;;;14.20;99.90;;;13.08;100.00;103802.16;5011910;28;20029;-72
2021/08/10 05:29:27;;;;;;;10.57;3.20;;;14.30;99.90;;;13.23;100.00;103818.78;5029101;28;20414;-73
2021/08/10 05:31:52;;;;;;;10.75;3.38;;;14.50;99.90;;;13.41;100.00;103836.31;5030460;28;20032;-73
2021/08/10 05:34:18;;;;;;;12.10;3.90;;;14.60;99.90;;;13.51;100.00;103852.09;5030013;28;20071;-73
2021/08/10 05:36:44;;;;;;;7.55;3.05;;;14.70;99.90;;;13.66;100.00;103924.34;5012213;28;20344;-73
2021/08/10 05:39:10;;;;;;;6.38;3.22;;;14.90;99.90;;;13.96;100.00;103965.56;5029909;28;20074;-73
2021/08/10 05:41:36;;;;;;;11.88;3.30;;;15.10;99.90;;;14.10;100.00;103958.38;5013904;28;20037;-73
2021/08/10 05:44:03;;;;;;;7.78;3.25;;;15.30;99.90;;;14.20;100.00;103911.44;5009613;28;20445;-73
2021/08/10 05:46:29;;;;;;;5.22;2.67;;;15.40;99.90;;;14.39;100.00;103912.13;5035572;28;20037;-73
2021/08/10 05:48:55;;;;;;;10.13;3.20;;;15.60;99.90;;;14.40;100.00;103884.69;5017135;28;20491;-72
2021/08/10 05:51:21;;;;;;;6.85;3.00;;;15.70;99.90;;;14.81;99.86;103972.63;5017589;28;20033;-73
2021/08/10 05:53:47;;;;;;;5.80;2.90;;;16.40;99.90;;;15.79;96.33;104019.91;5033344;28;20029;-73
2021/08/10 05:56:12;;;;;;;5.88;2.60;;;17.20;99.90;;;16.55;91.14;104077.94;5035706;28;20037;-73
2021/08/10 05:58:38;;;;;;;5.55;2.50;;;17.50;99.90;;;16.68;88.23;104044.00;5015706;28;20404;-73
2021/08/10 06:01:05;;;;;;;8.85;2.40;;;17.80;99.90;;;16.78;88.63;104026.97;5037085;28;20036;-72
2021/08/10 06:03:31;;;;;;;9.55;2.40;;;17.80;99.90;;;16.90;87.75;104025.84;5015563;28;20033;-73
2021/08/10 06:05:57;;;;;;;3.75;2.50;;;17.90;99.90;;;17.07;86.98;103982.03;5033452;28;20024;-73
2021/08/10 06:08:23;;;;;;;5.00;2.53;;;18.20;99.90;;;17.50;85.43;104037.84;5017334;28;20021;-73
2021/08/10 06:10:49;;;;;;;7.88;2.50;;;18.60;99.90;;;17.84;83.17;104010.41;5016597;28;20045;-73
2021/08/10 06:13:15;;;;;;;7.43;2.28;;;18.90;99.90;;;18.15;82.08;104023.81;5032446;28;20094;-73
2021/08/10 06:15:41;;;;;;;4.65;2.40;;;18.90;99.90;;;17.82;82.34;103925.16;5021756;28;20021;-73
2021/08/10 06:18:07;;;;;;;7.82;2.38;;;18.40;99.90;;;17.18;85.46;103815.75;5030158;28;20123;-73
2021/08/10 06:20:33;;;;;;;7.53;2.40;;;18.00;99.90;;;16.70;87.60;103754.84;5033357;28;20036;-73
2021/08/10 06:23:01;;;;;;;5.72;3.10;;;17.50;99.90;;;16.46;89.92;103712.84;5030349;28;20052;-74
2021/08/10 06:25:27;;;;;;;8.05;3.00;;;17.20;99.90;;;16.24;91.76;103707.16;5049837;28;20043;-74
2021/08/10 06:27:53;;;;;;;6.43;3.08;;;17.80;99.90;;;17.95;87.25;103994.16;5027759;28;20044;-74
2021/08/10 06:30:20;;;;;;;7.70;2.72;;;19.50;99.90;;;19.96;80.82;104134.31;5033795;28;20052;-74
2021/08/10 06:32:46;;;;;;;4.45;2.35;;;21.10;99.90;;;21.27;73.05;104313.75;5032288;28;20025;-74
2021/08/10 06:35:12;;;;;;;9.57;2.53;;;22.00;99.90;;;21.96;69.28;104125.19;5033544;28;20028;-74
2021/08/10 06:37:38;;;;;;;5.60;2.03;;;21.80;99.90;;;20.69;70.43;104323.75;5016366;28;20033;-72
2021/08/10 06:40:05;;;;;;;5.20;2.70;;;20.30;99.90;;;18.91;76.98;104756.94;5015555;28;20028;-74
2021/08/10 06:42:31;;;;;;;3.00;2.30;;;19.50;99.90;;;18.55;79.03;103947.13;5032655;28;20036;-74
2021/08/10 06:45:00;;;;;;;6.63;2.92;;;18.80;99.90;;;17.78;83.69;103851.47;5049295;28;20044;-73
2021/08/10 06:47:26;;;;;;;7.85;2.60;;;18.30;99.90;;;17.21;86.95;103679.91;5017262;28;20032;-72
2021/08/10 06:49:52;;;;;;;5.60;3.17;;;17.90;99.90;;;17.03;89.25;103552.63;5059060;28;20033;-73
2021/08/10 06:52:18;;;;;;;9.98;2.88;;;17.40;99.90;;;16.83;89.53;103451.22;5033305;28;20092;-72
2021/08/10 06:54:46;;;;;;;14.98;3.65;;;17.60;99.90;;;16.84;89.86;103421.00;5032799;28;20082;-74
2021/08/10 06:57:12;;;;;;;7.10;3.22;;;17.70;99.90;;;17.07;90.88;103410.53;5014600;28;20040;-74
2021/08/10 06:59:38;;;;;;;7.25;3.45;;;17.90;99.90;;;17.50;89.77;103437.59;5032133;28;20032;-75
2021/08/10 07:02:06;;;;;;;19.00;3.00;;;18.20;99.90;;;17.76;87.15;103413.59;5029548;28;20061;-73
2021/08/10 07:04:35;;;;;;;6.63;3.17;;;18.70;99.90;;;18.64;82.39;103501.19;5034437;28;20098;-73
2021/08/10 07:07:02;;;;;;;5.68;2.65;;;19.30;99.90;;;19.56;78.29;103504.78;5012423;28;20029;-74
2021/08/10 07:09:28;;;;;;;9.93;3.15;;;20.10;99.90;;;20.10;75.74;103468.66;5048992;28;20061;-74
2021/08/10 07:11:55;;;;;;;5.97;2.50;;;20.20;99.90;;;19.65;74.41;104862.44;5032528;28;20138;-73
2021/08/10 07:14:21;;;;;;;8.45;2.22;;;20.00;99.90;;;19.26;75.44;104195.22;5030227;28;20381;-73
2021/08/10 07:16:47;;;;;;;6.97;2.65;;;19.50;99.90;;;18.63;79.54;103755.63;5033552;28;20025;-72
2021/08/10 07:19:14;;;;;;;7.78;2.63;;;19.10;99.90;;;18.17;81.90;103680.63;5029773;28;20029;-73
2021/08/10 07:21:41;;;;;;;6.65;3.13;;;18.60;99.90;;;17.67;84.79;103525.81;5014819;28;20063;-74
2021/08/10 07:24:08;;;;;;;4.38;2.67;;;18.40;99.90;;;17.57;86.61;103521.69;5008222;28;20021;-74
2021/08/10 07:26:35;;;;;;;7.75;3.08;;;18.30;99.90;;;17.39;85.62;103435.25;5032167;28;20044;-74
2021/08/10 07:29:01;;;;;;;5.00;2.50;;;18.20;99.90;;;17.43;87.00;103437.78;5030283;28;20028;-73
2021/08/10 07:31:27;;;;;;;9.60;3.08;;;18.20;99.90;;;17.38;85.15;103311.00;5033400;28;20036;-73
2021/08/10 07:33:54;;;;;;;4.88;2.60;;;18.20;99.90;;;17.53;85.97;103293.63;5031247;28;20070;-73
2021/08/10 07:36:20;;;;;;;6.18;2.60;;;18.40;99.90;;;17.78;85.48;103299.81;5030501;28;20443;-74
2021/08/10 07:38:46;;;;;;;8.32;2.88;;;18.60;99.90;;;18.02;84.14;103306.06;5014888;28;20032;-74
2021/08/10 07:41:13;;;;;;;12.98;2.85;;;18.80;99.90;;;18.31;83.66;104515.13;5015999;28;20484;-74
2021/08/10 07:43:39;;;;;;;11.95;2.50;;;19.00;99.90;;;18.43;80.09;103911.00;5031589;28;20033;-74
2021/08/10 07:46:06;;;;;;;7.05;2.72;;;19.20;99.90;;;18.67;80.35;103783.97;5043698;28;20401;-73
2021/08/10 07:48:32;;;;;;;14.52;2.85;;;19.30;99.90;;;18.72;80.37;103629.00;5029723;28;20097;-73
2021/08/10 07:51:00;;;;;;;10.13;2.60;;;19.30;99.90;;;18.70;79.61;103486.72;5032889;28;20415;-74
2021/08/10 07:53:26;;;;;;;9.20;2.70;;;19.40;99.90;;;18.73;78.91;103451.94;5022901;28;20135;-73
2021/08/10 07:55:52;;;;;;;8.43;2.63;;;19.30;99.90;;;18.64;79.07;103515.41;5032822;28;20033;-74
2021/08/10 07:58:19;;;;;;;4.80;2.40;;;19.30;99.90;;;18.73;78.00;103375.41;5048849;28;20120;-74
2021/08/10 08:00:45;;;;;;;4.82;2.22;;;19.40;99.90;;;18.83;76.40;103354.56;5030979;28;20103;-75
2021/08/10 08:03:11;;;;;;;10.73;2.88;;;19.50;99.90;;;19.01;77.67;107441.13;5029621;28;20053;-74
2021/08/10 08:05:39;;;;;;;6.65;2.92;;;19.70;99.90;;;19.09;77.45;104568.72;5014352;28;20017;-74
2021/08/10 08:08:05;;;;;;;4.40;2.60;;;19.70;99.90;;;19.06;77.17;103898.44;5030180;28;20044;-74
2021/08/10 08:10:32;;;;;;;6.20;2.72;;;19.90;99.90;;;19.24;76.75;103681.47;5029751;28;20045;-75
2021/08/10 08:12:58;;;;;;;7.75;2.70;;;19.80;99.90;;;19.00;77.58;103535.47;5030668;28;20412;-74
2021/08/10 08:15:25;;;;;;;4.57;2.25;;;19.60;99.90;;;18.77;76.92;103440.22;5022253;28;20033;-74
2021/08/10 08:17:51;;;;;;;10.13;2.53;;;19.50;99.90;;;18.59;78.14;103351.03;5023108;28;20528;-75
2021/08/10 08:20:33;;;;;;;5.63;2.20;;;19.30;99.90;;;18.34;78.85;103249.78;5046423;28;20043;-74
2021/08/10 08:22:59;;;;;;;5.97;2.10;;;19.00;99.90;;;17.97;79.06;103184.53;5014992;28;20083;-75
2021/08/10 08:25:25;;;;;;;8.10;2.13;;;18.80;99.90;;;17.65;79.00;103144.00;5013786;28;20029;-75
2021/08/10 08:27:51;;;;;;;5.15;2.45;;;18.50;99.90;;;17.43;80.83;103122.63;5031608;28;20017;-75
2021/08/10 08:30:18;;;;;;;5.47;2.05;;;18.30;99.90;;;17.32;82.62;103123.03;5033225;28;20083;-75
2021/08/10 08:32:44;;;;;;;5.25;2.17;;;18.30;99.90;;;17.43;82.84;103080.03;5006212;28;20021;-75
2021/08/10 08:35:11;;;;;;;6.45;2.55;;;18.30;99.90;;;17.45;82.93;103106.56;5012282;28;20021;-75
2021/08/10 08:37:37;;;;;;;7.22;2.80;;;18.30;99.90;;;17.43;83.07;103072.91;5031266;28;20025;-75
2021/08/10 08:40:07;;;;;;;6.22;2.55;;;18.30;99.90;;;17.35;82.71;103045.69;5028054;28;20440;-75
2021/08/10 08:42:34;;;;;;;5.95;2.65;;;18.20;99.90;;;17.26;83.17;103030.06;5031615;28;20048;-75
2021/08/10 08:45:00;;;;;;;12.68;2.70;;;18.20;99.90;;;17.33;83.87;103042.22;5005194;28;20029;-76
2021/08/10 08:47:27;;;;;;;7.82;2.22;;;18.20;99.90;;;17.29;84.25;103029.06;5029494;28;20108;-75
2021/08/10 08:49:57;;;;;;;4.45;2.35;;;18.20;99.90;;;17.41;83.71;103044.59;5032179;28;20021;-75
2021/08/10 08:52:25;;;;;;;9.80;2.30;;;18.30;99.90;;;17.38;82.74;103024.25;5045134;28;20033;-76
2021/08/10 08:54:54;;;;;;;7.57;2.10;;;18.20;99.90;;;17.29;81.73;103000.66;5032317;28;20099;-75
2021/08/10 08:57:20;;;;;;;5.10;2.45;;;18.30;99.90;;;17.37;82.61;103019.00;5014210;28;20476;-74
2021/08/10 08:59:46;;;;;;;9.45;2.55;;;18.30;99.90;;;17.38;83.67;103020.72;5029222;28;20033;-75
2021/08/10 09:02:24;;;;;;;6.13;2.30;;;18.20;99.90;;;17.34;83.67;102998.69;5003992;28;20043;-74
2021/08/10 09:04:51;;;;;;;10.57;2.92;;;18.30;99.90;;;17.48;81.72;103002.59;4987333;28;20497;-75
2021/08/10 09:07:42;;;;;;;3.92;2.15;;;18.50;99.90;;;17.71;81.45;102962.59;4992301;28;20389;-76
2021/08/10 09:10:35;;;;;;;5.28;1.88;;;18.70;99.90;;;17.90;79.86;102985.81;4998681;28;20112;-74
2021/08/10 09:13:24;;;;;;;7.05;2.30;;;18.80;99.90;;;17.99;79.06;102988.09;5010938;28;20154;-75
2021/08/10 09:16:20;;;;;;;5.47;1.90;;;18.70;99.90;;;17.85;78.29;102969.16;4991443;28;20052;-75
2021/08/10 09:19:05;;;;;;;9.38;2.08;;;18.60;99.90;;;17.71;78.98;102957.25;5001894;28;20045;-75
2021/08/10 09:21:33;;;;;;;6.03;2.22;;;18.60;99.90;;;17.69;79.74;102945.78;4988981;28;20053;-75
2021/08/10 09:24:14;;;;;;;6.82;2.13;;;18.50;99.90;;;17.50;80.85;102923.50;4998707;28;20021;-75
2021/08/10 09:26:47;;;;;;;11.63;2.40;;;18.30;99.90;;;17.16;82.36;102871.63;5000115;28;20391;-75
2021/08/10 09:29:14;;;;;;;16.42;2.22;;;18.00;99.90;;;16.88;84.45;102840.78;5010711;28;20032;-75
2021/08/10 09:32:06;;;;;;;3.47;2.22;;;17.80;99.90;;;16.66;85.81;102821.25;4991132;28;20179;-75
2021/08/10 09:34:33;;;;;;;5.13;2.30;;;17.60;99.90;;;16.59;86.89;102831.25;5028886;28;20072;-75
2021/08/10 09:37:16;;;;;;;8.35;2.05;;;17.60;99.90;;;16.62;87.64;102855.06;4999990;28;20060;-75
2021/08/10 09:39:43;;;;;;;6.07;2.30;;;17.60;99.90;;;16.79;88.17;102871.25;4987267;28;20037;-75
2021/08/10 09:42:16;;;;;;;6.03;2.40;;;17.80;99.90;;;16.91;88.64;102875.25;4986804;28;20115;-75
2021/08/10 09:45:22;;;;;;;6.32;2.40;;;17.90;99.90;;;17.17;86.77;102899.94;4974500;28;20740;-74
2021/08/10 09:48:35;;;;;;;4.70;2.10;;;18.10;99.90;;;17.41;86.91;102917.63;4987070;28;20124;-75
2021/08/10 09:51:47;;;;;;;12.45;2.45;;;18.30;99.90;;;17.54;83.78;102922.47;4989052;28;20083;-75
2021/08/10 09:54:14;;;;;;;5.60;2.00;;;18.40;99.90;;;17.53;83.94;102915.38;5005672;28;20047;-74
2021/08/10 09:57:15;;;;;;;5.97;2.33;;;18.40;99.90;;;17.44;83.25;102895.31;4981829;28;20056;-74
2021/08/10 10:00:19;;;;;;;4.07;1.85;;;18.20;99.90;;;17.25;82.45;102871.22;5000444;28;20046;-74
2021/08/10 10:03:42;;;;;;;4.95;2.35;;;18.10;99.90;;;16.99;83.79;102843.00;4984250;28;20029;-75
2021/08/10 10:07:02;;;;;;;4.22;2.03;;;17.90;99.90;;;16.89;85.32;102831.88;4984324;28;20068;-75
2021/08/10 10:10:08;;;;;;;5.93;2.30;;;17.80;99.90;;;16.72;85.50;102805.06;4991999;28;20041;-75
2021/08/10 10:13:07;;;;;;;4.57;2.03;;;17.70;99.90;;;16.86;87.16;102850.59;4990393;28;20534;-75
2021/08/10 10:16:26;;;;;;;8.13;2.22;;;17.80;99.90;;;17.02;86.16;102850.88;4983815;28;20519;-75
2021/08/10 10:19:55;;;;;;;10.18;2.22;;;18.10;99.90;;;17.20;86.30;102881.22;4983103;28;20017;-76
2021/08/10 10:22:34;;;;;;;7.75;2.20;;;18.00;99.90;;;16.86;86.75;102834.66;4999052;28;20048;-75